Marrero, LA (70072)

1:39 AM CDT on June 23, 2017 (GMT -0500)
PLANTATION ESTATES | | Change Station
Active Advisory: Coastal Flood Advisory Active Notice: Coastal Flood Advisory

Elev 10 ft 29.87 °N, 90.09 °W | Updated 23 seconds ago

Overcast
Overcast
80.7 °F
Feels Like 87 °F
N
8.0
Wind Variable Wind from SSE

Today
High -- | Low -- °F
--% Chance of Precip.
Yesterday
High -- | Low -- °F
Precip. -- in
Pressure 29.88 in
Visibility 8.0 miles
Clouds Scattered Clouds 1800 ft
Mostly Cloudy 2400 ft
Mostly Cloudy 7000 ft
Heat Index 87 °F
Dew Point 77 °F
Humidity 88%
Rainfall 0.00 in
Snow Depth Not available.
6:00 AM 8:04 PM
Waning Crescent, 1% visible
METAR KMSY 230553Z 17013G17KT 8SM -RA SCT018 BKN024 BKN070 27/26 A2987 RMK AO2 RAB17 SLP119 P0001 60001 T02670256 10283 20267 403110256 50003
Pressure 29.88 in
Visibility 8.0 miles
Clouds Scattered Clouds 1800 ft
Mostly Cloudy 2400 ft
Mostly Cloudy 7000 ft
Heat Index 87 °F
Dew Point 77 °F
Humidity 88%
Rainfall 0.00 in
Snow Depth Not available.
6:00 AM 8:04 PM
Waning Crescent, 1% visible
METAR KMSY 230553Z 17013G17KT 8SM -RA SCT018 BKN024 BKN070 27/26 A2987 RMK AO2 RAB17 SLP119 P0001 60001 T02670256 10283 20267 403110256 50003

Get Your Daily Forecast Email!

Thanks for signing up!

Be on the lookout for a verification email in your inbox.

You'll start receiving severe weather alerts in your inbox..

×

10-Day Weather Forecast

Almanac

Astronomy

Jun. 23, 2017 Rise Set
Actual Time
Civil Twilight
Nautical Twilight
Astronomical Twilight
Moon
Length of Visible Light
Length of Day
Tomorrow will be .
, % of the Moon is Illuminated

Today's Extremes

State Highs State Lows

Community

WunderPhotos

Category 6

Welcome to Category 6. This is the collective home for Weather Underground's featured writeups by Dr. Jeff Masters (right), Bob Henson (left), Chris Burt, and other regular contributors.

Nearby

Air Quality

  Air Quality AQ Index Pollutant
Not available.

Snow Depth

Station Depth Elevation

Earthquake Activity

City Distance Mag. Time & Date
Minimum magnitude displayed is 2.5.

Coastal Water Temperatures

Place Temperature

Stations

Nearby Weather Stations

Station Location Temp. Windchill Dew Point Humidity Wind Precip. Elev Updated Type
                   

Watches & Warnings

Coastal Flood Advisory
Issued: 3:04 PM CDT Jun. 22, 2017 – National Weather Service

... Coastal flood advisory remains in effect until 4 PM CDT
Friday...

* coastal flooding... tides 1 to 3 feet above normal will
continue through the next high tide which will occur late
tomorrow morning and through the afternoon.

* Timing... now through tomorrow afternoon.

* Impacts... moderate flooding of low lying areas and access
roads near tidal lakes... bays and inlets as well as the open
coast outside hurricane protection levee systems.

Precautionary/preparedness actions...

A coastal flood advisory indicates that onshore winds and tides
will combine to generate flooding of low areas along the shore.